Time;durP1;ratioP1;P1;durP2;ratioP2;P2;SDS_P1;SDS_P2;PMS_P1;PMS_P2;Temp;Humidity;BMP_temperature;BMP_pressure;BME280_temperature;BME280_humidity;BME280_pressure;Samples;Min_cycle;Max_cycle;Signal;HPM_P1;HPM_P2
2023/02/08 00:00:15;;;;;;;17.20;13.82;;;;;;;-4.66;71.11;100315.09;5036565;28;20029;-74
2023/02/08 00:02:40;;;;;;;18.15;13.88;;;;;;;-4.38;69.78;100320.28;5053759;28;20096;-75
2023/02/08 00:05:06;;;;;;;16.90;13.10;;;;;;;-4.40;70.16;100321.34;5050994;28;20399;-73
2023/02/08 00:07:31;;;;;;;16.70;13.13;;;;;;;-4.35;68.53;100324.53;5030628;28;20021;-73
2023/02/08 00:09:57;;;;;;;14.90;12.63;;;;;;;-4.35;68.55;100325.38;5059940;28;20033;-73
2023/02/08 00:12:22;;;;;;;16.83;12.30;;;;;;;-4.50;68.71;100331.59;5043422;28;20380;-73
2023/02/08 00:14:47;;;;;;;18.35;13.35;;;;;;;-4.92;71.31;100329.03;5061484;28;20078;-73
2023/02/08 00:17:13;;;;;;;15.77;12.45;;;;;;;-4.74;69.74;100317.38;5029883;28;20103;-72
2023/02/08 00:19:38;;;;;;;14.95;12.90;;;;;;;-4.47;69.13;100331.41;5039214;28;20097;-72
2023/02/08 00:22:04;;;;;;;16.35;11.32;;;;;;;-4.66;69.54;100341.38;5074475;28;20032;-72
2023/02/08 00:24:29;;;;;;;15.43;12.52;;;;;;;-4.68;70.19;100337.16;5073964;28;20487;-73
2023/02/08 00:26:54;;;;;;;15.60;12.95;;;;;;;-4.82;70.49;100332.78;5040058;28;20044;-73
2023/02/08 00:29:20;;;;;;;15.77;12.15;;;;;;;-4.82;71.04;100338.03;5040548;28;20176;-74
2023/02/08 00:31:45;;;;;;;14.55;12.00;;;;;;;-4.88;70.87;100330.53;5047092;28;20025;-75
2023/02/08 00:34:10;;;;;;;16.85;12.02;;;;;;;-4.82;70.67;100335.41;5026747;28;20033;-74
2023/02/08 00:36:36;;;;;;;16.27;12.55;;;;;;;-4.83;70.52;100325.81;5014237;28;20112;-75
2023/02/08 00:39:02;;;;;;;18.63;12.57;;;;;;;-4.80;70.25;100333.50;5013528;28;20053;-75
2023/02/08 00:41:27;;;;;;;15.90;12.32;;;;;;;-5.06;71.03;100329.03;5025937;28;20110;-76
2023/02/08 00:43:52;;;;;;;15.95;12.90;;;;;;;-4.78;70.42;100336.06;5036910;28;20151;-74
2023/02/08 00:46:19;;;;;;;15.68;12.52;;;;;;;-4.82;69.82;100329.28;5039809;28;20044;-76
2023/02/08 00:48:44;;;;;;;16.50;13.40;;;;;;;-4.88;70.21;100329.69;5052850;28;20037;-76
2023/02/08 00:51:14;;;;;;;16.73;12.90;;;;;;;-4.83;70.18;100333.69;5053381;28;20037;-75
2023/02/08 00:53:42;;;;;;;16.55;13.10;;;;;;;-5.02;71.30;100341.06;5053563;28;20118;-75
2023/02/08 00:56:08;;;;;;;17.45;12.00;;;;;;;-5.00;71.20;100347.06;5036439;28;20091;-76
2023/02/08 00:58:34;;;;;;;17.15;13.40;;;;;;;-5.00;71.08;100339.16;5056594;28;20037;-76
2023/02/08 01:01:00;;;;;;;16.40;12.93;;;;;;;-4.99;70.52;100349.56;5036117;28;20494;-76
2023/02/08 01:03:26;;;;;;;15.30;12.07;;;;;;;-5.02;71.40;100343.69;5046122;28;20036;-75
2023/02/08 01:05:52;;;;;;;18.42;13.10;;;;;;;-5.02;70.51;100335.81;5033011;28;20064;-75
2023/02/08 01:08:19;;;;;;;14.00;12.15;;;;;;;-4.92;71.01;100350.03;5032304;28;20037;-75
2023/02/08 01:10:44;;;;;;;16.05;13.13;;;;;;;-5.17;70.81;100344.59;5046444;28;20391;-74
2023/02/08 01:13:10;;;;;;;16.35;12.77;;;;;;;-5.29;71.97;100350.56;5045937;28;20059;-74
2023/02/08 01:15:35;;;;;;;16.95;12.02;;;;;;;-5.27;71.51;100346.06;5052765;28;20422;-74
2023/02/08 01:18:01;;;;;;;16.27;12.50;;;;;;;-5.15;71.62;100342.72;5039295;28;20087;-75
2023/02/08 01:20:28;;;;;;;16.20;13.68;;;;;;;-5.10;71.29;100341.50;5045689;28;20033;-74
2023/02/08 01:22:55;;;;;;;21.63;14.05;;;;;;;-5.00;71.54;100347.91;5047168;28;20033;-75
2023/02/08 01:25:20;;;;;;;34.03;23.42;;;;;;;-4.88;70.66;100354.19;5039168;28;20067;-75
2023/02/08 01:27:46;;;;;;;24.45;16.00;;;;;;;-5.03;70.65;100358.59;5038660;28;20128;-74
2023/02/08 01:30:12;;;;;;;27.05;18.55;;;;;;;-5.17;71.64;100355.09;5033772;28;20033;-74
2023/02/08 01:32:37;;;;;;;21.67;16.05;;;;;;;-5.29;72.49;100351.44;5061896;28;20032;-74
2023/02/08 01:35:03;;;;;;;17.30;14.35;;;;;;;-5.05;71.73;100344.72;5032507;28;20060;-74
2023/02/08 01:37:28;;;;;;;30.17;23.27;;;;;;;-5.11;71.47;100344.25;5031640;28;20046;-74
2023/02/08 01:39:53;;;;;;;27.55;22.42;;;;;;;-5.26;71.60;100329.41;5033488;28;20041;-75
2023/02/08 01:42:19;;;;;;;23.75;18.27;;;;;;;-5.27;71.82;100332.94;5033438;28;20159;-74
2023/02/08 01:45:22;;;;;;;25.08;18.27;;;;;;;-5.34;72.14;100342.13;5045483;28;20053;-76
2023/02/08 01:47:58;;;;;;;21.52;17.02;;;;;;;-5.41;72.92;100335.59;5044143;28;20049;-75
2023/02/08 01:50:27;;;;;;;23.65;16.67;;;;;;;-5.49;73.18;100328.16;5028238;28;20040;-74
2023/02/08 01:52:52;;;;;;;24.10;19.45;;;;;;;-5.54;73.12;100332.84;5048726;28;20486;-74
2023/02/08 01:55:22;;;;;;;21.50;16.10;;;;;;;-5.77;72.93;100323.69;5048638;28;20033;-74
2023/02/08 01:57:51;;;;;;;20.70;17.00;;;;;;;-5.42;72.88;100323.38;5031153;28;20026;-74
2023/02/08 02:00:21;;;;;;;21.73;17.67;;;;;;;-5.45;72.89;100331.44;5032400;28;20028;-74
2023/02/08 02:02:47;;;;;;;21.92;16.65;;;;;;;-5.52;73.29;100327.47;5032055;28;20181;-73
2023/02/08 02:05:15;;;;;;;25.50;19.25;;;;;;;-5.38;73.23;100322.25;5031687;28;20025;-74
2023/02/08 02:07:40;;;;;;;24.83;18.15;;;;;;;-5.45;72.86;100316.53;5030837;28;20030;-74
2023/02/08 02:10:21;;;;;;;24.05;20.90;;;;;;;-5.40;73.33;100326.75;5031060;28;20040;-74
2023/02/08 02:12:48;;;;;;;22.42;17.13;;;;;;;-5.36;73.58;100317.75;5031698;28;20105;-74
2023/02/08 02:15:14;;;;;;;23.83;17.67;;;;;;;-5.42;74.27;100323.38;5031323;28;20025;-74
2023/02/08 02:17:39;;;;;;;21.88;16.63;;;;;;;-5.33;73.35;100326.31;5030631;28;20030;-75
2023/02/08 02:20:13;;;;;;;21.75;16.35;;;;;;;-5.64;74.30;100327.28;5061153;28;20025;-74
2023/02/08 02:23:21;;;;;;;20.73;16.65;;;;;;;-5.33;73.52;100320.22;5025916;28;20043;-75
2023/02/08 02:26:19;;;;;;;19.42;13.30;;;;;;;-5.53;73.90;100316.13;5058124;28;20033;-73
2023/02/08 02:29:20;;;;;;;22.65;14.70;;;;;;;-5.46;73.34;100321.88;5026899;28;20160;-73
2023/02/08 02:31:52;;;;;;;22.25;16.55;;;;;;;-5.65;74.08;100322.13;5038846;28;20483;-75
2023/02/08 02:34:25;;;;;;;19.20;15.70;;;;;;;-5.34;73.17;100321.13;5037388;28;20073;-74
2023/02/08 02:37:05;;;;;;;20.83;15.65;;;;;;;-5.42;73.17;100311.13;5013977;28;20057;-74
2023/02/08 02:39:48;;;;;;;21.13;15.35;;;;;;;-5.46;73.70;100316.63;5032041;28;20391;-73
2023/02/08 02:45:29;;;;;;;21.80;13.30;;;;;;;-5.03;72.26;100305.19;5047005;28;20503;-73
2023/02/08 02:48:16;;;;;;;20.88;15.13;;;;;;;-4.80;71.43;100306.41;5018599;28;20033;-74
2023/02/08 02:50:48;;;;;;;18.92;15.15;;;;;;;-4.75;71.16;100309.59;5044353;28;20041;-75
2023/02/08 02:53:27;;;;;;;17.95;14.25;;;;;;;-4.74;71.30;100306.88;5006931;28;20036;-74
2023/02/08 02:55:59;;;;;;;20.17;15.40;;;;;;;-4.92;71.61;100308.00;5034042;28;20098;-74
2023/02/08 02:58:26;;;;;;;20.77;16.33;;;;;;;-5.02;72.15;100299.03;5065973;28;20387;-74
2023/02/08 03:00:53;;;;;;;24.48;15.00;;;;;;;-5.32;73.13;100308.78;5052303;28;20083;-74
2023/02/08 03:03:21;;;;;;;22.38;16.55;;;;;;;-5.41;73.68;100309.34;5030742;28;20043;-73
2023/02/08 03:05:47;;;;;;;20.92;15.55;;;;;;;-5.44;74.22;100314.75;5030636;28;20033;-73
2023/02/08 03:08:22;;;;;;;21.67;15.52;;;;;;;-5.28;73.09;100320.78;5046329;28;20029;-73
2023/02/08 03:11:15;;;;;;;22.40;16.50;;;;;;;-5.30;73.54;100317.41;5031788;28;20045;-73
2023/02/08 03:13:43;;;;;;;22.20;15.15;;;;;;;-5.45;73.53;100313.06;5047118;28;20060;-73
2023/02/08 03:16:17;;;;;;;19.35;15.82;;;;;;;-5.37;73.42;100316.94;5031659;28;20123;-74
2023/02/08 03:18:57;;;;;;;20.73;15.68;;;;;;;-5.30;73.33;100320.88;5029816;28;20040;-74
2023/02/08 03:21:40;;;;;;;21.23;16.80;;;;;;;-5.41;73.49;100317.22;5031103;28;20606;-74
2023/02/08 03:24:14;;;;;;;19.95;16.92;;;;;;;-5.45;73.39;100313.91;5040901;28;20168;-75
2023/02/08 03:27:14;;;;;;;23.55;15.23;;;;;;;-5.60;73.66;100315.66;5043701;28;20126;-74
2023/02/08 03:29:47;;;;;;;21.83;15.40;;;;;;;-5.53;74.27;100316.13;5044206;28;20060;-74
2023/02/08 03:32:18;;;;;;;22.98;17.00;;;;;;;-5.57;74.20;100319.03;5056730;28;20479;-74
2023/02/08 03:35:07;;;;;;;23.17;15.52;;;;;;;-5.41;73.27;100310.16;5032963;28;20040;-74
2023/02/08 03:37:37;;;;;;;20.83;15.65;;;;;;;-5.28;73.25;100321.63;5043125;28;20028;-74
2023/02/08 03:40:17;;;;;;;20.98;15.52;;;;;;;-5.33;73.04;100322.81;5037810;28;20037;-75
2023/02/08 03:42:44;;;;;;;24.15;14.20;;;;;;;-5.19;72.74;100309.72;5036574;28;20065;-74
2023/02/08 03:45:16;;;;;;;23.67;13.98;;;;;;;-5.25;72.77;100304.84;5021012;28;20028;-74
2023/02/08 03:47:44;;;;;;;21.90;16.38;;;;;;;-5.24;72.89;100312.63;5027544;28;20464;-75
2023/02/08 03:50:11;;;;;;;21.83;15.45;;;;;;;-5.10;72.15;100317.03;5040506;28;20047;-75
2023/02/08 03:52:37;;;;;;;22.60;13.82;;;;;;;-5.09;72.45;100311.66;5036819;28;20025;-74
2023/02/08 03:55:11;;;;;;;22.50;14.73;;;;;;;-4.93;71.54;100311.59;5055906;28;20026;-74
2023/02/08 03:57:45;;;;;;;23.35;14.68;;;;;;;-5.10;71.70;100307.38;5059653;28;20033;-75
2023/02/08 04:00:13;;;;;;;25.70;14.60;;;;;;;-5.18;72.35;100306.97;5046538;28;20042;-74
2023/02/08 04:03:02;;;;;;;24.75;17.98;;;;;;;-5.07;72.12;100301.94;5023986;28;20036;-75
2023/02/08 04:05:28;;;;;;;25.17;16.13;;;;;;;-4.89;71.27;100305.19;5052875;28;20402;-74
2023/02/08 04:07:53;;;;;;;25.17;14.73;;;;;;;-4.82;70.75;100309.13;5056007;28;20022;-74
2023/02/08 04:10:19;;;;;;;26.90;14.52;;;;;;;-4.78;70.09;100315.06;5030200;28;20444;-74
2023/02/08 04:12:45;;;;;;;25.90;16.25;;;;;;;-4.77;70.50;100317.56;5059976;28;20536;-74
2023/02/08 04:15:11;;;;;;;24.02;16.95;;;;;;;-4.69;70.17;100312.66;5054203;28;20128;-74
2023/02/08 04:17:36;;;;;;;20.98;17.17;;;;;;;-4.62;70.24;100313.97;5032893;28;20104;-73
2023/02/08 04:20:02;;;;;;;21.50;16.05;;;;;;;-4.75;70.48;100315.69;5050351;28;20482;-75
2023/02/08 04:22:27;;;;;;;19.67;15.75;;;;;;;-4.77;70.49;100317.56;5044505;28;20114;-73
2023/02/08 04:24:52;;;;;;;21.52;17.00;;;;;;;-4.90;71.06;100316.63;5040189;28;20087;-74
2023/02/08 04:27:18;;;;;;;22.33;15.90;;;;;;;-4.85;71.29;100317.19;5043394;28;20110;-73
2023/02/08 04:29:43;;;;;;;25.23;15.60;;;;;;;-4.93;71.70;100311.59;5050005;28;20048;-74
2023/02/08 04:32:12;;;;;;;20.63;17.10;;;;;;;-5.00;71.72;100310.28;5034720;28;20053;-74
2023/02/08 04:34:38;;;;;;;24.02;16.70;;;;;;;-5.04;71.80;100319.28;5047821;28;20242;-74
2023/02/08 04:37:04;;;;;;;19.52;15.73;;;;;;;-5.01;71.91;100313.81;5042356;28;20025;-73
2023/02/08 04:39:29;;;;;;;23.05;16.13;;;;;;;-4.99;72.15;100314.56;5056907;28;20501;-74
2023/02/08 04:41:55;;;;;;;25.33;18.55;;;;;;;-5.03;71.79;100310.47;5060422;28;20029;-74
2023/02/08 04:44:20;;;;;;;36.67;21.65;;;;;;;-5.18;72.24;100311.41;5050538;28;20057;-75
2023/02/08 04:46:45;;;;;;;42.28;29.48;;;;;;;-5.07;72.07;100316.84;5060201;28;20048;-74
2023/02/08 04:49:11;;;;;;;21.48;16.83;;;;;;;-5.33;72.60;100313.19;5034019;28;20155;-74
2023/02/08 04:51:36;;;;;;;23.50;16.33;;;;;;;-5.20;71.54;100308.00;5059057;28;20021;-76
2023/02/08 04:54:02;;;;;;;28.55;22.38;;;;;;;-5.20;71.75;100319.38;5037276;28;20487;-73
2023/02/08 04:56:27;;;;;;;27.15;20.83;;;;;;;-5.08;71.75;100323.03;5049576;28;20030;-74
2023/02/08 04:58:53;;;;;;;30.15;22.45;;;;;;;-5.13;71.75;100319.81;5064778;28;20108;-73
2023/02/08 05:01:18;;;;;;;33.15;23.08;;;;;;;-5.16;71.67;100315.63;5035368;28;20036;-74
2023/02/08 05:03:43;;;;;;;34.30;25.17;;;;;;;-5.16;72.03;100320.03;5032868;28;20048;-73
2023/02/08 05:06:09;;;;;;;29.23;24.17;;;;;;;-5.47;72.68;100309.69;5033862;28;20091;-74
2023/02/08 05:08:34;;;;;;;25.27;19.35;;;;;;;-5.26;72.25;100306.63;5064282;28;20048;-75
2023/02/08 05:11:00;;;;;;;26.33;19.10;;;;;;;-5.07;71.41;100298.47;5045145;28;20029;-74
2023/02/08 05:13:25;;;;;;;29.73;20.27;;;;;;;-4.95;71.29;100313.47;5064769;28;20441;-74
2023/02/08 05:15:50;;;;;;;28.15;19.45;;;;;;;-4.91;71.02;100307.06;5045439;28;20112;-75
2023/02/08 05:18:16;;;;;;;26.08;19.98;;;;;;;-4.93;70.77;100301.94;5046912;28;20029;-74
2023/02/08 05:20:41;;;;;;;24.40;20.95;;;;;;;-5.10;71.70;100309.16;5040113;28;20069;-74
2023/02/08 05:23:07;;;;;;;25.83;19.17;;;;;;;-4.99;71.22;100309.31;5038887;28;20044;-74
2023/02/08 05:25:32;;;;;;;25.95;17.77;;;;;;;-5.14;71.90;100313.75;5061345;28;20475;-73
2023/02/08 05:27:58;;;;;;;24.02;19.50;;;;;;;-5.18;72.20;100311.41;5062277;28;20140;-72
2023/02/08 05:30:24;;;;;;;25.45;18.08;;;;;;;-5.24;72.34;100309.16;5056540;28;20028;-72
2023/02/08 05:32:49;;;;;;;25.95;16.50;;;;;;;-5.36;72.71;100304.63;5039284;28;20042;-73
2023/02/08 05:35:15;;;;;;;26.15;19.38;;;;;;;-5.30;72.42;100305.13;5040955;28;20091;-74
2023/02/08 05:37:40;;;;;;;29.70;19.00;;;;;;;-5.19;72.24;100309.72;5037885;28;20037;-73
2023/02/08 05:40:06;;;;;;;25.17;20.23;;;;;;;-5.30;72.33;100306.91;5052235;28;20021;-73
2023/02/08 05:42:31;;;;;;;25.00;16.60;;;;;;;-5.43;72.50;100300.69;5055488;28;20029;-72
2023/02/08 05:44:57;;;;;;;25.67;19.27;;;;;;;-5.26;71.74;100309.25;5046268;28;20364;-73
2023/02/08 05:47:22;;;;;;;24.75;20.25;;;;;;;-5.34;71.92;100306.22;5062345;28;20036;-74
2023/02/08 05:49:48;;;;;;;24.73;16.70;;;;;;;-5.56;72.28;100311.09;5053392;28;20463;-74
2023/02/08 05:52:13;;;;;;;32.25;24.63;;;;;;;-5.56;72.97;100323.38;5038960;28;20056;-73
2023/02/08 05:54:39;;;;;;;36.30;28.67;;;;;;;-5.92;74.00;100323.75;5053183;28;20538;-72
2023/02/08 05:57:04;;;;;;;38.00;28.80;;;;;;;-5.96;74.58;100315.25;5054660;28;20041;-72
2023/02/08 05:59:30;;;;;;;37.50;28.55;;;;;;;-5.82;73.89;100310.00;5042146;28;20381;-72
2023/02/08 06:01:55;;;;;;;46.85;29.30;;;;;;;-5.89;73.76;100308.72;5046467;28;20030;-72
2023/02/08 06:04:20;;;;;;;40.30;31.52;;;;;;;-5.96;73.91;100317.00;5044527;28;20669;-72
2023/02/08 06:06:46;;;;;;;36.47;20.95;;;;;;;-6.07;74.37;100325.50;5044975;28;20119;-79
2023/02/08 06:09:11;;;;;;;31.63;22.73;;;;;;;-5.91;73.90;100323.69;5038201;28;20025;-72
2023/02/08 06:11:36;;;;;;;38.28;20.15;;;;;;;-5.93;73.90;100317.69;5053381;28;20147;-73
2023/02/08 06:14:02;;;;;;;29.73;22.55;;;;;;;-5.90;73.47;100337.63;5055478;28;20032;-73
2023/02/08 06:16:28;;;;;;;31.33;18.90;;;;;;;-6.19;74.24;100334.06;5039032;28;20034;-72
2023/02/08 06:18:53;;;;;;;34.17;19.10;;;;;;;-6.04;74.58;100340.19;5007850;28;20622;-74
2023/02/08 06:21:18;;;;;;;28.85;20.05;;;;;;;-6.12;74.20;100339.81;5025472;28;20115;-73
2023/02/08 06:23:44;;;;;;;31.13;18.13;;;;;;;-6.25;74.79;100330.97;5061421;28;20036;-74
2023/02/08 06:26:09;;;;;;;34.88;17.52;;;;;;;-6.23;74.60;100329.91;5044333;28;20068;-75
2023/02/08 06:28:35;;;;;;;27.95;20.60;;;;;;;-6.10;73.82;100333.53;5046025;28;20104;-75
2023/02/08 06:31:00;;;;;;;36.10;20.35;;;;;;;-6.33;74.88;100339.25;5064560;28;20441;-75
2023/02/08 06:33:25;;;;;;;44.72;29.73;;;;;;;-6.41;74.98;100336.19;5038023;28;20120;-74
2023/02/08 06:35:51;;;;;;;44.63;34.03;;;;;;;-6.29;75.03;100335.50;5056693;28;20060;-74
2023/02/08 06:38:17;;;;;;;40.47;30.42;;;;;;;-6.48;75.07;100345.31;5023969;28;20088;-74
2023/02/08 06:40:45;;;;;;;43.60;26.55;;;;;;;-6.47;75.37;100352.25;5024485;28;20033;-74
2023/02/08 06:43:11;;;;;;;35.08;19.40;;;;;;;-6.75;75.83;100345.06;5030878;28;20029;-74
2023/02/08 06:45:36;;;;;;;38.13;28.40;;;;;;;-6.71;75.84;100343.13;5042995;28;20098;-74
2023/02/08 06:48:02;;;;;;;38.10;28.95;;;;;;;-6.55;75.50;100354.44;5050038;28;20056;-74
2023/02/08 06:50:27;;;;;;;39.03;31.13;;;;;;;-6.56;75.35;100352.78;5051862;28;20483;-74
2023/02/08 06:52:53;;;;;;;37.00;25.65;;;;;;;-6.48;75.47;100361.03;5067241;28;20451;-74
2023/02/08 06:55:18;;;;;;;58.33;33.33;;;;;;;-6.52;74.85;100343.81;5051855;28;20041;-74
2023/02/08 06:57:43;;;;;;;64.68;40.13;;;;;;;-6.64;75.26;100360.19;5031577;28;20025;-74
2023/02/08 07:00:09;;;;;;;42.55;35.55;;;;;;;-6.49;75.50;100357.56;5047230;28;20029;-74
2023/02/08 07:02:35;;;;;;;48.67;34.33;;;;;;;-6.43;74.96;100361.63;5047210;28;20484;-74
2023/02/08 07:05:00;;;;;;;43.97;34.70;;;;;;;-6.30;75.13;100365.25;5030570;28;20040;-74
2023/02/08 07:07:26;;;;;;;43.45;24.10;;;;;;;-6.29;74.45;100356.47;5060054;28;20215;-74
2023/02/08 07:09:52;;;;;;;36.92;27.65;;;;;;;-6.11;74.18;100365.91;5042714;28;20037;-74
2023/02/08 07:12:18;;;;;;;36.72;21.98;;;;;;;-6.21;74.38;100369.16;5014608;28;20044;-74
2023/02/08 07:14:43;;;;;;;35.88;24.88;;;;;;;-5.93;73.94;100377.16;5046978;28;20037;-74
2023/02/08 07:17:10;;;;;;;32.95;25.02;;;;;;;-5.66;73.40;100367.66;5052292;28;20037;-74
2023/02/08 07:19:35;;;;;;;35.70;26.10;;;;;;;-5.85;73.16;100365.28;5066656;28;20075;-74
2023/02/08 07:22:06;;;;;;;35.83;22.38;;;;;;;-5.63;73.28;100375.38;5066898;28;20485;-74
2023/02/08 07:24:33;;;;;;;30.92;26.48;;;;;;;-5.50;72.93;100378.09;5037273;28;20037;-74
2023/02/08 07:26:59;;;;;;;31.98;22.27;;;;;;;-5.47;73.01;100372.69;5010438;28;20028;-74
2023/02/08 07:29:25;;;;;;;32.92;23.50;;;;;;;-5.47;73.15;100370.06;5051347;28;20026;-74
2023/02/08 07:31:50;;;;;;;32.88;18.63;;;;;;;-5.50;73.57;100373.69;5029565;28;20376;-74
2023/02/08 07:34:20;;;;;;;31.30;23.33;;;;;;;-5.51;74.97;100368.56;5044625;28;20714;-75
2023/02/08 07:36:47;;;;;;;33.88;22.13;;;;;;;-5.48;74.15;100365.75;5030872;28;20025;-74
2023/02/08 07:39:12;;;;;;;32.50;22.38;;;;;;;-5.31;73.59;100376.94;5029810;28;20442;-74
2023/02/08 07:41:37;;;;;;;29.65;23.02;;;;;;;-5.17;73.01;100368.22;5046496;28;20038;-74
2023/02/08 07:44:03;;;;;;;31.45;23.17;;;;;;;-5.09;72.49;100360.75;5029379;28;20033;-74
2023/02/08 07:46:28;;;;;;;33.03;25.48;;;;;;;-4.83;71.84;100364.41;5046429;28;20113;-74
2023/02/08 07:48:54;;;;;;;35.70;23.80;;;;;;;-4.77;71.78;100354.34;5043594;28;20143;-74
2023/02/08 07:51:19;;;;;;;30.88;25.50;;;;;;;-4.81;71.40;100358.13;5035177;28;20128;-74
2023/02/08 07:53:44;;;;;;;33.75;24.10;;;;;;;-4.63;72.24;100362.22;5029748;28;20037;-74
2023/02/08 07:56:10;;;;;;;34.03;24.60;;;;;;;-4.58;70.57;100357.53;5036038;28;20495;-74
2023/02/08 07:58:36;;;;;;;38.47;24.23;;;;;;;-4.26;69.02;100356.34;5037424;28;20472;-74
2023/02/08 08:01:01;;;;;;;33.53;26.10;;;;;;;-3.93;68.09;100362.97;5046473;28;20041;-74
2023/02/08 08:03:27;;;;;;;37.70;23.48;;;;;;;-3.93;68.42;100350.69;5046021;28;20105;-74
2023/02/08 08:05:53;;;;;;;33.47;25.90;;;;;;;-3.63;66.80;100350.44;5033264;28;20372;-74
2023/02/08 08:08:18;;;;;;;38.30;22.30;;;;;;;-3.59;66.33;100360.66;5028974;28;20013;-74
2023/02/08 08:10:45;;;;;;;35.45;22.92;;;;;;;-3.56;66.62;100349.06;5029900;28;20095;-74
2023/02/08 08:13:11;;;;;;;34.08;23.85;;;;;;;-3.45;66.44;100343.94;5009977;28;20026;-74
2023/02/08 08:15:36;;;;;;;32.50;23.75;;;;;;;-3.51;65.70;100339.94;5032908;28;20505;-74
2023/02/08 08:18:01;;;;;;;32.20;22.42;;;;;;;-3.35;65.77;100345.00;5030180;28;20029;-74
2023/02/08 08:20:27;;;;;;;34.65;21.23;;;;;;;-3.27;66.21;100352.41;5046077;28;20037;-74
2023/02/08 08:22:52;;;;;;;35.17;22.42;;;;;;;-3.26;65.08;100343.53;5030609;28;20460;-74
2023/02/08 08:25:18;;;;;;;38.25;21.35;;;;;;;-3.17;65.46;100343.75;5065556;28;20395;-73
2023/02/08 08:27:43;;;;;;;37.33;21.00;;;;;;;-3.21;65.94;100331.72;5035863;28;20116;-74
2023/02/08 08:30:11;;;;;;;34.50;24.10;;;;;;;-3.26;64.98;100347.00;5035581;28;20037;-75
2023/02/08 08:32:37;;;;;;;38.10;21.45;;;;;;;-3.26;65.70;100328.56;5049501;28;20028;-75
2023/02/08 08:35:04;;;;;;;36.63;21.58;;;;;;;-3.17;67.19;100343.75;5059944;28;20498;-75
2023/02/08 08:37:29;;;;;;;33.67;22.92;;;;;;;-3.08;66.38;100332.56;5032324;28;20021;-75
2023/02/08 08:39:54;;;;;;;37.08;21.17;;;;;;;-3.10;65.85;100326.56;5033808;28;20030;-75
2023/02/08 08:42:20;;;;;;;33.47;23.42;;;;;;;-2.88;65.30;100329.41;5025585;28;20527;-75
2023/02/08 08:44:46;;;;;;;34.33;21.77;;;;;;;-2.73;63.65;100329.28;5029232;28;20037;-75
2023/02/08 08:47:11;;;;;;;34.58;20.15;;;;;;;-2.82;62.26;100328.97;5041686;28;20028;-75
2023/02/08 08:49:37;;;;;;;38.20;20.92;;;;;;;-2.67;62.51;100326.19;5052300;28;20037;-75
2023/02/08 08:52:06;;;;;;;34.90;19.55;;;;;;;-2.64;61.43;100331.28;5036836;28;20076;-75
2023/02/08 08:54:32;;;;;;;32.35;20.00;;;;;;;-2.62;61.87;100324.09;5058743;28;20045;-75
2023/02/08 08:56:57;;;;;;;36.67;25.75;;;;;;;-2.52;61.98;100335.69;5031415;28;20035;-75
2023/02/08 08:59:23;;;;;;;32.20;21.90;;;;;;;-2.59;63.07;100329.16;5035952;28;20133;-75
2023/02/08 09:01:49;;;;;;;32.50;19.52;;;;;;;-2.44;62.29;100333.31;5049370;28;20727;-75
2023/02/08 09:04:14;;;;;;;30.55;18.80;;;;;;;-2.39;59.96;100334.69;5039004;28;20123;-76
2023/02/08 09:06:40;;;;;;;35.78;21.20;;;;;;;-2.38;61.85;100333.72;5019740;28;20024;-76
2023/02/08 09:09:06;;;;;;;38.00;21.48;;;;;;;-2.42;62.18;100332.25;5055224;28;20561;-75
2023/02/08 09:11:34;;;;;;;28.88;19.77;;;;;;;-2.37;60.42;100324.84;5039575;28;20029;-75
2023/02/08 09:14:03;;;;;;;28.38;21.65;;;;;;;-2.23;62.18;100337.91;5032786;28;20041;-75
2023/02/08 09:16:29;;;;;;;31.00;18.27;;;;;;;-2.08;60.76;100338.59;5049228;28;20033;-76
2023/02/08 09:18:55;;;;;;;29.92;18.50;;;;;;;-1.76;60.35;100342.34;5061786;28;20048;-75
2023/02/08 09:21:23;;;;;;;26.83;20.23;;;;;;;-1.90;60.57;100339.88;5029332;28;20074;-75
2023/02/08 09:23:49;;;;;;;27.50;19.52;;;;;;;-1.78;61.11;100330.19;5019577;28;20467;-75
2023/02/08 09:26:16;;;;;;;31.08;21.20;;;;;;;-1.70;60.48;100336.59;5032509;28;20026;-75
2023/02/08 09:28:41;;;;;;;27.90;21.50;;;;;;;-1.73;60.66;100342.13;5031801;28;20038;-75
2023/02/08 09:31:12;;;;;;;25.88;19.75;;;;;;;-1.66;60.11;100348.63;5033533;28;20411;-75
2023/02/08 09:33:38;;;;;;;30.20;17.83;;;;;;;-1.53;59.40;100344.09;5032203;28;20041;-75
2023/02/08 09:36:04;;;;;;;30.70;17.25;;;;;;;-1.42;59.44;100346.75;5048556;28;20025;-75
2023/02/08 09:38:30;;;;;;;24.33;18.83;;;;;;;-1.46;59.01;100340.03;5038961;28;20048;-75
2023/02/08 09:41:13;;;;;;;27.23;20.58;;;;;;;-1.36;59.26;100339.34;5050551;28;20128;-75
2023/02/08 09:44:09;;;;;;;23.50;18.95;;;;;;;-1.14;58.15;100339.38;5053227;28;20039;-75
2023/02/08 09:46:38;;;;;;;24.13;18.27;;;;;;;-1.21;58.22;100331.06;5045371;28;20034;-75
2023/02/08 09:49:10;;;;;;;22.75;15.40;;;;;;;-1.23;57.16;100329.50;5049156;28;20552;-75
2023/02/08 09:51:38;;;;;;;23.75;17.80;;;;;;;-1.08;57.41;100338.91;5059513;28;20072;-75
2023/02/08 09:54:09;;;;;;;24.73;18.55;;;;;;;-0.97;57.83;100336.28;5031304;28;20025;-75
2023/02/08 09:56:40;;;;;;;24.77;18.45;;;;;;;-0.92;56.69;100345.53;5058478;28;20041;-75
2023/02/08 09:59:12;;;;;;;24.00;17.63;;;;;;;-0.88;56.07;100330.25;5031014;28;20469;-75
2023/02/08 10:01:38;;;;;;;24.80;18.83;;;;;;;-0.78;56.58;100342.66;5031900;28;20048;-75
2023/02/08 10:04:12;;;;;;;26.42;18.45;;;;;;;-0.72;57.22;100338.69;5031669;28;20026;-75
2023/02/08 10:06:38;;;;;;;23.40;17.60;;;;;;;-0.76;55.25;100334.59;5031371;28;20537;-76
2023/02/08 10:09:05;;;;;;;24.33;16.60;;;;;;;-0.79;55.61;100334.84;5051462;28;20024;-75
2023/02/08 10:11:38;;;;;;;21.83;17.08;;;;;;;-0.55;56.25;100338.19;5038472;28;20037;-75
2023/02/08 10:14:14;;;;;;;24.45;16.15;;;;;;;-0.60;53.91;100329.78;5035518;28;20087;-75
2023/02/08 10:17:04;;;;;;;23.65;16.27;;;;;;;-0.31;53.95;100330.97;5032698;28;20033;-75
2023/02/08 10:20:08;;;;;;;20.70;16.00;;;;;;;-0.35;55.12;100324.22;5031332;28;20046;-75
2023/02/08 10:22:52;;;;;;;20.38;15.93;;;;;;;-0.38;55.43;100319.19;5030106;28;20079;-75
2023/02/08 10:25:45;;;;;;;22.65;17.40;;;;;;;-0.46;55.13;100321.59;5032328;28;20041;-75
2023/02/08 10:28:33;;;;;;;20.45;16.17;;;;;;;-0.47;54.76;100308.50;5030196;28;20434;-75
2023/02/08 10:31:14;;;;;;;20.17;15.65;;;;;;;-0.34;56.53;100315.31;5048009;28;20112;-75
2023/02/08 10:33:52;;;;;;;22.73;14.80;;;;;;;-0.27;53.54;100316.50;5032534;28;20043;-75
2023/02/08 10:36:20;;;;;;;20.25;14.15;;;;;;;-0.10;53.05;100308.06;5032218;28;20570;-75
2023/02/08 10:38:48;;;;;;;18.15;14.25;;;;;;;0.15;52.36;100311.31;5030283;28;20138;-75
2023/02/08 10:41:28;;;;;;;19.40;14.40;;;;;;;0.11;52.43;100315.19;5035325;28;20037;-75
2023/02/08 10:44:04;;;;;;;17.80;13.43;;;;;;;0.17;52.42;100299.63;5037844;28;20037;-75
2023/02/08 10:46:34;;;;;;;20.00;12.93;;;;;;;0.07;51.53;100304.00;5051892;28;20037;-75
2023/02/08 10:49:38;;;;;;;19.83;13.75;;;;;;;0.17;52.30;100302.28;5061635;28;20111;-75
2023/02/08 10:52:04;;;;;;;18.77;13.23;;;;;;;0.27;51.88;100286.47;5067345;28;20029;-75
2023/02/08 10:54:30;;;;;;;16.60;13.52;;;;;;;0.29;51.86;100292.47;5050860;28;20037;-75
2023/02/08 10:57:12;;;;;;;20.35;14.07;;;;;;;0.33;51.35;100285.94;5038289;28;20037;-75
2023/02/08 10:59:50;;;;;;;18.52;14.13;;;;;;;0.51;53.38;100287.06;5036497;28;20041;-75
2023/02/08 11:02:25;;;;;;;17.10;14.13;;;;;;;0.37;52.87;100284.72;5034043;28;20402;-75
2023/02/08 11:05:14;;;;;;;19.65;15.00;;;;;;;0.71;51.49;100280.91;5055711;28;20029;-75
2023/02/08 11:07:40;;;;;;;21.38;15.52;;;;;;;0.53;52.15;100280.66;5029626;28;20033;-75
2023/02/08 11:10:18;;;;;;;21.52;15.52;;;;;;;0.48;51.28;100276.72;5044930;28;20075;-75
2023/02/08 11:13:06;;;;;;;21.85;14.82;;;;;;;0.48;51.33;100274.06;5047532;28;20047;-75
2023/02/08 11:15:51;;;;;;;18.90;14.23;;;;;;;0.72;48.73;100256.09;5042975;28;20072;-75
2023/02/08 11:18:31;;;;;;;19.63;14.20;;;;;;;0.55;50.79;100257.53;5021677;28;20034;-75
2023/02/08 11:21:45;;;;;;;17.33;14.82;;;;;;;0.73;50.30;100249.78;5044454;28;20034;-75